Flight Track Log - Related Links

Times and Time Zones

All times are in EST time to prevent confusion due to time zone crossing. See the QXE2340 flight status page for this flight to view local times or setup timezone preferences in your user account.


Time Position Orientation Groundspeed Altitude Reporting Facility
EST Latitude Longitude Course Direction KTS MPH feet Rate Location/Type
Wed 12:46:00 AM 47.4236 -121.4963 90° East  Level Estimated
Wed 12:47:00 AM 47.4212 -121.3603 91° East  Level FlightAware Approximate
Wed 12:48:00 AM 47.4160 -121.2245 90° East  Level Estimated
Wed 12:49:00 AM 47.4107 -121.0887 98° East  Level Estimated
Wed 12:50:00 AM 47.4053 -120.9530 92° East  Level Estimated
Wed 12:51:00 AM 47.4027 -120.8171 92° East  Level FlightAware Approximate
Wed 12:52:00 AM 47.3999 -120.6812 92° East  Level FlightAware Approximate
Wed 12:53:00 AM 47.4171 -120.5461 79° East  Level FlightAware Approximate
Wed 12:54:00 AM 47.4686 -120.4327 56° Northeast  Level FlightAware Approximate
Wed 12:55:00 AM 47.4605 -120.2965 90° East  Level Estimated
Wed 12:56:00 AM 47.4762 -120.1618 80° East  Level FlightAware Approximate
Wed 12:57:00 AM 47.4673 -120.0257 90° East  Level Estimated
Wed 12:58:00 AM 47.4698 -119.8890 88° East  Level FlightAware Approximate
Wed 12:59:00 AM 47.4721 -119.7523 88° East  Level FlightAware Approximate
Wed 01:00:00 AM 47.4743 -119.6156 89° East  Level FlightAware Approximate
Wed 01:01:00 AM 47.4763 -119.4790 89° East  Level FlightAware Approximate
Wed 01:02:00 AM 47.4781 -119.3422 89° East  Level FlightAware Approximate
Wed 01:03:00 AM 47.4798 -119.2055 89° East  Level FlightAware Approximate
Wed 01:04:00 AM 47.4814 -119.0688 89° East  Level FlightAware Approximate
Wed 01:05:00 AM 47.4571 -118.9388 105° East  Level FlightAware Approximate
Wed 01:06:00 AM 47.4326 -118.8090 106° East  Level FlightAware Approximate
Wed 01:07:00 AM 47.4080 -118.6793 106° East  Level FlightAware Approximate
Wed 01:08:00 AM 47.3826 -118.5420 97° East  Level FlightAware Approximate
Wed 01:09:00 AM 47.3707 -118.4085 97° East  Level FlightAware Approximate
Wed 01:10:00 AM 47.3585 -118.2731 98° East  Level FlightAware Approximate
Wed 01:11:00 AM 47.3461 -118.1377 98° East  Level FlightAware Approximate
Wed 01:12:00 AM 47.3336 -118.0024 98° East  Level FlightAware Approximate
Wed 01:13:00 AM 47.3235 -117.8667 96° East  Level FlightAware Approximate
Wed 01:14:00 AM 47.3133 -117.7310 96° East  Level FlightAware Approximate
Wed 01:15:00 AM 47.3029 -117.5954 96° East  Level FlightAware Approximate
Wed 01:16:00 AM 47.2924 -117.4598 96° East  Level FlightAware Approximate
Wed 01:17:00 AM 47.2817 -117.3243 97° East  Level FlightAware Approximate
Wed 01:18:00 AM 47.2709 -117.1888 97° East  Level FlightAware Approximate
Wed 01:19:00 AM 47.2599 -117.0534 97° East  Level FlightAware Approximate
Wed 01:20:00 AM 47.2486 -116.9177 97° East  Level FlightAware Approximate
Wed 01:21:00 AM 47.2366 -116.7822 97° East  Level FlightAware Approximate
Wed 01:22:00 AM 47.2253 -116.6552 97° East  Level FlightAware Approximate
Wed 01:23:00 AM 47.2138 -116.5283 98° East  Level FlightAware Approximate
Wed 01:24:00 AM 47.2038 -116.3913 96° East  Level FlightAware Approximate
Wed 01:25:00 AM 47.1937 -116.2540 96° East  Level FlightAware Approximate
Wed 01:26:00 AM 47.1833 -116.1169 96° East  Level FlightAware Approximate
Wed 01:27:00 AM 47.1678 -115.9800 99° East  Level FlightAware Approximate
Wed 01:28:00 AM 47.1521 -115.8433 100° East  Level FlightAware Approximate
Wed 01:29:00 AM 47.1361 -115.7053 100° East  Level FlightAware Approximate
Wed 01:30:00 AM 47.1199 -115.5674 100° East  Level FlightAware Approximate
Wed 01:31:00 AM 47.1035 -115.4295 100° East  Level FlightAware Approximate
Wed 01:32:00 AM 47.0917 -115.2908 96° East  Level FlightAware Approximate
Wed 01:33:00 AM 47.0795 -115.1522 100° East  Level FlightAware Approximate
Wed 01:34:00 AM 47.0667 -115.0142 90° East  Level FlightAware Approximate
Wed 01:35:00 AM 47.0543 -114.8758 98° East  Level FlightAware Approximate
Wed 01:36:00 AM 47.0334 -114.7446 90° East  Level FlightAware Approximate

Login

Don't have an account? Register now (free) for customized features, flight alerts, and more!